Relevés horaires Chievres (Belgique)


Relevés horaires à Chievres - Dimanche 16 Avr. 2023
Heure UTC1 Température [°C] Vent [km/h] Hum. [%] Pres.4 [hPa] Visi. [Km] Nébu. [octa] Préc.5 [mm] Cond.
2m. Res. Ros. Dir.2 Vit. Moy. Raf.3
23:00 8.3 8.3 6.5 N 3.7 -- 9.3 88 1026.4(-0.1/3h) 12 -- -- --
22:00 8.6 8 6.3 NE 5.6 -- 9.3 85 1026.5(0.3/3h) 14 -- -- --
21:00 8.8 7.7 6.4 N 7.4 -- 11.1 85 1026.7(0.7/3h) 19 -- -- --
20:00 8.0 7.3 6.2 N 5.6 -- 7.4 88 1026.5(0.6/3h) 18 -- -- --
19:00 9.1 9.1 7.2 NNO 1.9 -- 5.6 88 1026.2(0.3/3h) 16 -- -- --
18:00 10.1 10.1 6.9 NE 3.7 -- 13.0 80 1026(0.1/3h) 20 -- -- --
17:00 10.8 10.5 6.7 NNE 5.6 -- 9.3 76 1025.7(-0.2/3h) 11 -- -- --
16:00 10.8 10.5 6.8 N 5.6 -- 11.1 76 1025.7(-0.2/3h) 20 -- -- --
15:00 10.7 10 6.7 N 7.4 -- 13.0 76 1025.7(-0.1/3h) 20 -- -- --
14:00 10.1 9.7 6.6 N 5.6 -- 9.3 79 1026(0.0/3h) 20 -- -- --
13:00 9.9 9.5 6.6 N 5.6 -- 11.1 80 1026(0.2/3h) 17 -- -- --
12:00 9.8 8.9 6.0 N 7.4 -- 14.8 77 1026(0.3/3h) 20 -- -- --
11:00 9.3 7.9 5.5 N 9.3 -- 13.0 77 1026(0.7/3h) 20 -- -- --
10:00 9.4 8 5.6 N 9.3 -- 14.8 77 1025.9(0.9/3h) 20 -- -- --
09:00 8.7 7.2 5.2 NNO 9.3 -- 14.8 79 1025.7(1.0/3h) 20 -- -- --
08:00 8.1 6.5 4.7 NNO 9.3 -- 13.0 79 1025.2(0.9/3h) 20 -- -- --
07:00 7.5 5.8 4.3 NNO 9.3 -- 14.8 80 1024.9(0.8/3h) 19 -- -- --
06:00 7.0 5.2 3.9 NNO 9.3 -- 16.7 81 1024.7(0.4/3h) 20 -- -- --
05:00 6.9 5.1 3.7 NNO 9.3 -- 16.7 80 1024.4(0.2/3h) 20 -- -- --
04:00 6.8 5 3.6 NNO 9.3 -- 14.8 80 1024(0.1/3h) 20 -- -- --
03:00 6.7 5.3 4.0 NNO 7.4 -- 14.8 83 1024.2(0.0/3h) 20 -- -- --
02:00 6.5 5 4.3 NNO 7.4 -- 11.1 86 1024.2(0.5/3h) 18 -- -- --
01:00 6.4 4.9 4.3 NNO 7.4 -- 11.1 86 1024(0.7/3h) 16 -- -- --

1 Coordinated Universal Time. Actuellement il est 22:00 locale et 20:00 UTC.

2 Le vent souffle depuis la direction indiquée vers la direction oposée.

3 Les rafales max. sont disponible 40 min après l'heure du relevé.

4 Pour les stations d'altitude (plus de 600m) le géopotentiel du niveau le plus proche de la pression obligatoire est indiqué.

5 Les stations disposant d'un diffuseur peuvent indiquer "trace". Cela signifie que des précipitations ont touchés le sol mais que la quantité est inférieure à 0.1 mm.

Récapitulatif de la journée
Température [°C] Vent [km/h] Ensoleillement4 [h] Precipitations totale5 [mm] Pression [Hpa]
Min1 Max.2 Moy.3 Max. Min Max.
5.5 11.2 0 16.7 0 h 0 min 0 1024.0 1026.7

1 Température minimale relevée entre 18:00 UTC la veille et 18:00 UTC le jour donné.

2 Température maximale relevée entre 06:00 UTC le jour donné et 06:00 UTC le lendemain.

3 Vent moyen de la journée basé sur les relevés horaires.

4 Ensoleillement en heures relevé entre 06:00 UTC la veille et 06:00 UTC le jour donné.

5 Précipitations totales tombées entre 06:00 UTC la jour donné et 06:00 UTC le lendemain.

Graphiques horaires